createdAt,value
2022-08-17T00:00:34.648Z,17.80
2022-08-17T00:06:04.082Z,17.80
2022-08-17T00:11:09.637Z,17.80
2022-08-17T00:16:17.387Z,17.80
2022-08-17T00:21:25.130Z,17.80
2022-08-17T00:26:43.551Z,17.80
2022-08-17T00:31:46.939Z,17.60
2022-08-17T00:36:48.749Z,17.40
2022-08-17T00:41:50.530Z,17.40
2022-08-17T00:46:52.534Z,17.50
2022-08-17T00:52:11.892Z,17.40
2022-08-17T00:57:55.050Z,17.40
2022-08-17T01:03:12.870Z,17.40
2022-08-17T01:08:19.716Z,17.40
2022-08-17T01:13:22.551Z,17.40
2022-08-17T01:18:26.186Z,17.30
2022-08-17T01:23:28.882Z,17.20
2022-08-17T01:28:40.723Z,17.10
2022-08-17T01:33:55.022Z,17.00
2022-08-17T01:38:56.959Z,17.00
2022-08-17T01:44:03.029Z,17.00
2022-08-17T01:49:10.518Z,16.90
2022-08-17T01:54:16.484Z,16.90
2022-08-17T01:59:19.960Z,16.90
2022-08-17T02:04:22.017Z,16.80
2022-08-17T02:09:29.838Z,16.80
2022-08-17T02:14:31.886Z,16.80
2022-08-17T02:19:33.758Z,16.70
2022-08-17T02:24:59.384Z,16.80
2022-08-17T02:30:00.931Z,16.80
2022-08-17T02:35:03.858Z,16.90
2022-08-17T02:40:07.022Z,16.90
2022-08-17T02:45:15.219Z,16.80
2022-08-17T02:50:18.473Z,16.80
2022-08-17T02:55:40.239Z,16.90
2022-08-17T03:00:47.198Z,16.90
2022-08-17T03:05:51.375Z,16.90
2022-08-17T03:10:53.306Z,16.90
2022-08-17T03:15:55.276Z,16.80
2022-08-17T03:21:00.323Z,16.80
2022-08-17T03:26:02.271Z,16.70
2022-08-17T03:31:05.602Z,16.70
2022-08-17T03:36:07.902Z,16.70
2022-08-17T03:41:09.749Z,16.60
2022-08-17T03:46:34.359Z,16.60
2022-08-17T03:51:55.834Z,16.60
2022-08-17T03:57:02.730Z,16.60
2022-08-17T04:02:11.420Z,16.60
2022-08-17T04:07:13.395Z,16.60
2022-08-17T04:12:17.515Z,16.50
2022-08-17T04:17:20.125Z,16.50
2022-08-17T04:22:33.179Z,16.50
2022-08-17T04:27:36.177Z,16.50
2022-08-17T04:33:05.147Z,16.50
2022-08-17T04:38:15.330Z,16.50
2022-08-17T04:43:20.454Z,16.50
2022-08-17T04:48:22.591Z,16.40
2022-08-17T04:53:27.160Z,16.40
2022-08-17T04:58:28.959Z,16.50
2022-08-17T05:03:31.010Z,16.40
2022-08-17T05:08:33.070Z,16.50
2022-08-17T05:13:34.917Z,16.50
2022-08-17T05:18:40.172Z,16.60
2022-08-17T05:23:43.484Z,16.70
2022-08-17T05:28:46.087Z,16.80
2022-08-17T05:33:49.474Z,16.90
2022-08-17T05:38:51.522Z,17.10
2022-08-17T05:43:56.352Z,17.30
2022-08-17T05:49:03.613Z,17.40
2022-08-17T05:54:20.419Z,17.60
2022-08-17T05:59:22.218Z,17.80
2022-08-17T06:04:32.407Z,18.20
2022-08-17T06:09:49.729Z,18.50
2022-08-17T06:15:19.546Z,19.00
2022-08-17T06:20:22.071Z,19.40
2022-08-17T06:25:31.797Z,19.80
2022-08-17T06:30:59.995Z,20.10
2022-08-17T06:36:40.269Z,20.50
2022-08-17T06:41:57.528Z,20.90
2022-08-17T06:47:11.111Z,21.20
2022-08-17T06:52:46.436Z,21.50
2022-08-17T06:57:53.962Z,22.00
2022-08-17T07:02:58.513Z,22.40
2022-08-17T07:08:11.593Z,22.80
2022-08-17T07:13:51.943Z,23.30
2022-08-17T07:18:56.391Z,23.70
2022-08-17T07:24:29.583Z,24.00
2022-08-17T07:29:38.013Z,24.30
2022-08-17T07:34:58.778Z,24.60
2022-08-17T07:40:16.925Z,24.90
2022-08-17T07:45:39.449Z,25.20
2022-08-17T07:50:41.262Z,25.50
2022-08-17T07:55:52.661Z,26.00
2022-08-17T08:01:24.069Z,26.40
2022-08-17T08:06:52.633Z,26.70
2022-08-17T08:11:54.511Z,26.90
2022-08-17T08:17:07.646Z,27.00
2022-08-17T08:22:26.223Z,27.10
2022-08-17T08:27:45.611Z,27.20
2022-08-17T08:33:05.017Z,27.50
2022-08-17T08:38:15.869Z,27.50
2022-08-17T08:43:54.786Z,27.60
2022-08-17T08:50:01.251Z,27.80
2022-08-17T08:55:05.438Z,28.20
2022-08-17T09:00:09.410Z,28.30
2022-08-17T09:05:48.579Z,28.60
2022-08-17T09:11:02.406Z,28.60
2022-08-17T09:16:16.769Z,28.50
2022-08-17T09:21:26.714Z,28.70
2022-08-17T09:26:44.303Z,28.90
2022-08-17T09:32:03.565Z,29.00
2022-08-17T09:37:33.735Z,29.30
2022-08-17T09:43:10.064Z,29.40
2022-08-17T09:48:20.061Z,29.40
2022-08-17T09:53:22.662Z,29.40
2022-08-17T09:58:47.629Z,29.60
2022-08-17T10:04:20.326Z,29.70
2022-08-17T10:09:41.149Z,30.00
2022-08-17T10:14:59.052Z,30.20
2022-08-17T10:20:20.421Z,30.40
2022-08-17T10:25:54.813Z,30.30
2022-08-17T10:31:31.070Z,30.30
2022-08-17T10:36:56.529Z,30.40
2022-08-17T10:42:30.097Z,30.40
2022-08-17T10:47:56.067Z,30.40
2022-08-17T10:52:59.362Z,30.40
2022-08-17T10:58:21.982Z,30.50
2022-08-17T11:03:26.093Z,30.60
2022-08-17T11:08:54.188Z,30.60
2022-08-17T11:14:23.803Z,30.60
2022-08-17T11:19:38.238Z,30.70
2022-08-17T11:24:52.988Z,30.70
2022-08-17T11:30:02.769Z,30.70
2022-08-17T11:35:23.080Z,30.70
2022-08-17T11:41:03.290Z,31.00
2022-08-17T11:46:20.791Z,31.00
2022-08-17T11:51:33.905Z,31.30
2022-08-17T11:56:50.365Z,31.30
2022-08-17T12:01:55.810Z,31.20
2022-08-17T12:07:10.442Z,31.20
2022-08-17T12:12:29.789Z,31.50
2022-08-17T12:17:41.419Z,31.50
2022-08-17T12:23:25.717Z,31.50
2022-08-17T12:28:31.670Z,31.30
2022-08-17T12:33:37.274Z,31.20
2022-08-17T12:38:39.185Z,31.10
2022-08-17T12:43:41.064Z,31.00
2022-08-17T12:48:59.704Z,31.20
2022-08-17T12:54:02.374Z,31.40
2022-08-17T12:59:04.288Z,31.60
2022-08-17T13:04:07.150Z,31.60
2022-08-17T13:09:35.941Z,31.70
2022-08-17T13:14:46.469Z,31.60
2022-08-17T13:19:50.483Z,31.40
2022-08-17T13:24:56.350Z,31.40
2022-08-17T13:30:02.266Z,31.50
2022-08-17T13:35:34.494Z,31.40
2022-08-17T13:40:43.766Z,31.40
2022-08-17T13:45:50.662Z,31.50
2022-08-17T13:50:58.646Z,31.60
2022-08-17T13:56:04.142Z,31.40
2022-08-17T14:01:34.295Z,31.40
2022-08-17T14:07:12.900Z,31.30
2022-08-17T14:12:17.270Z,31.20
2022-08-17T14:17:19.342Z,31.10
2022-08-17T14:22:30.985Z,31.00
2022-08-17T14:27:41.627Z,30.80
2022-08-17T14:32:55.051Z,30.60
2022-08-17T14:37:57.631Z,30.70
2022-08-17T14:42:59.765Z,30.60
2022-08-17T14:48:04.148Z,30.50
2022-08-17T14:53:08.439Z,30.40
2022-08-17T14:58:10.397Z,30.20
2022-08-17T15:03:12.398Z,30.00
2022-08-17T15:08:16.230Z,29.90
2022-08-17T15:13:21.582Z,29.60
2022-08-17T15:18:23.438Z,29.50
2022-08-17T15:23:39.804Z,29.60
2022-08-17T15:28:41.917Z,29.50
2022-08-17T15:33:43.953Z,29.40
2022-08-17T15:38:46.646Z,29.40
2022-08-17T15:43:51.916Z,29.30
2022-08-17T15:48:58.274Z,29.20
2022-08-17T15:54:04.439Z,29.00
2022-08-17T15:59:21.291Z,29.00
2022-08-17T16:04:30.265Z,28.90
2022-08-17T16:09:33.069Z,28.80
2022-08-17T16:14:35.245Z,28.60
2022-08-17T16:19:38.749Z,28.40
2022-08-17T16:24:47.888Z,28.20
2022-08-17T16:29:59.453Z,28.10
2022-08-17T16:35:06.425Z,27.90
2022-08-17T16:40:09.060Z,27.70
2022-08-17T16:45:14.654Z,27.50
2022-08-17T16:50:20.510Z,27.30
2022-08-17T16:55:22.705Z,27.20
2022-08-17T17:00:24.639Z,26.90
2022-08-17T17:05:38.381Z,26.70
2022-08-17T17:10:45.765Z,26.60
2022-08-17T17:16:12.850Z,26.40
2022-08-17T17:21:19.832Z,26.20
2022-08-17T17:26:34.303Z,26.00
2022-08-17T17:31:53.383Z,25.90
2022-08-17T17:37:01.559Z,25.60
2022-08-17T17:42:08.394Z,25.40
2022-08-17T17:47:11.387Z,25.00
2022-08-17T17:52:19.709Z,24.90
2022-08-17T17:57:38.205Z,24.80
2022-08-17T18:02:52.228Z,24.60
2022-08-17T18:08:18.993Z,24.50
2022-08-17T18:13:40.483Z,24.30
2022-08-17T18:18:46.186Z,24.10
2022-08-17T18:23:53.783Z,24.10
2022-08-17T18:28:55.750Z,24.10
2022-08-17T18:34:45.892Z,23.90
2022-08-17T18:39:47.075Z,23.70
2022-08-17T18:44:52.992Z,23.60
2022-08-17T18:50:22.154Z,23.40
2022-08-17T18:55:29.039Z,23.20
2022-08-17T19:00:39.367Z,23.10
2022-08-17T19:05:44.366Z,22.90
2022-08-17T19:10:51.307Z,23.00
2022-08-17T19:16:14.246Z,22.80
2022-08-17T19:21:37.662Z,22.80
2022-08-17T19:26:53.473Z,22.70
2022-08-17T19:31:59.339Z,22.60
2022-08-17T19:37:29.253Z,22.60
2022-08-17T19:43:03.049Z,22.50
2022-08-17T19:48:29.917Z,22.40
2022-08-17T19:54:06.330Z,22.40
2022-08-17T19:59:48.621Z,22.40
2022-08-17T20:04:52.232Z,22.40
2022-08-17T20:10:02.517Z,22.30
2022-08-17T20:15:17.558Z,22.20
2022-08-17T20:20:41.178Z,22.00
2022-08-17T20:26:03.166Z,21.70
2022-08-17T20:31:40.140Z,21.60
2022-08-17T20:37:01.862Z,21.50
2022-08-17T20:42:21.894Z,21.50
2022-08-17T20:47:29.048Z,21.40
2022-08-17T20:52:46.142Z,21.40
2022-08-17T20:57:48.859Z,21.30
2022-08-17T21:03:12.045Z,21.50
2022-08-17T21:08:17.530Z,21.80
2022-08-17T21:13:23.265Z,22.10
2022-08-17T21:18:41.933Z,22.10
2022-08-17T21:24:00.185Z,21.90
2022-08-17T21:29:32.339Z,21.90
2022-08-17T21:34:42.435Z,21.80
2022-08-17T21:39:51.863Z,21.80
2022-08-17T21:44:58.046Z,21.70
2022-08-17T21:50:22.786Z,21.80
2022-08-17T21:55:30.656Z,21.90
2022-08-17T22:00:32.463Z,22.00
2022-08-17T22:05:37.855Z,22.10
2022-08-17T22:10:43.779Z,22.10
2022-08-17T22:16:28.319Z,22.10
2022-08-17T22:21:31.600Z,22.00
2022-08-17T22:27:01.450Z,22.10
2022-08-17T22:32:06.492Z,22.30
2022-08-17T22:37:28.994Z,22.50
2022-08-17T22:42:32.302Z,22.70
2022-08-17T22:47:48.622Z,22.80
2022-08-17T22:53:15.570Z,23.10
2022-08-17T22:58:42.384Z,23.10
2022-08-17T23:03:59.357Z,23.20
2022-08-17T23:09:06.471Z,23.30
2022-08-17T23:14:08.659Z,23.60
2022-08-17T23:19:11.890Z,23.70
2022-08-17T23:24:23.929Z,23.80
2022-08-17T23:29:29.212Z,23.70
2022-08-17T23:34:31.365Z,23.70
2022-08-17T23:39:33.310Z,23.80
2022-08-17T23:44:37.348Z,23.70
2022-08-17T23:49:40.491Z,23.60
2022-08-17T23:54:46.397Z,23.60
2022-08-17T23:59:48.832Z,23.50
